Terminal Aerodrome Forecast
Issued by NWS

Home | Current Version | Previous Version | Text Only | Print | Product List | Glossary On
Versions: 1 2 3 4 5 6 7 8 9 10 11 12 13 14 15 16 17 18 19 20 21
000
FTUS46 KMTR 110500
TAFMRY
TAF
KMRY 110529Z 1106/1206 20004KT P6SM OVC012
     FM110900 VRB03KT P6SM OVC008
     FM111500 VRB03KT P6SM OVC012
     FM111900 25010KT P6SM SCT020
     FM120300 24005KT P6SM FEW010=

USA.gov is the U.S. government's official web portal to all federal, state and local government web resources and services.